createdAt,value
2017-03-20T00:00:08.710Z,9.69
2017-03-20T00:01:21.263Z,9.72
2017-03-20T00:02:33.186Z,9.76
2017-03-20T00:03:45.429Z,9.73
2017-03-20T00:04:57.670Z,9.69
2017-03-20T00:06:09.911Z,9.73
2017-03-20T00:07:22.459Z,9.74
2017-03-20T00:08:34.387Z,9.73
2017-03-20T00:09:46.907Z,9.73
2017-03-20T00:10:59.421Z,9.7
2017-03-20T00:12:11.349Z,9.73
2017-03-20T00:13:23.875Z,9.73
2017-03-20T00:14:36.125Z,9.7
2017-03-20T00:15:48.354Z,9.73
2017-03-20T00:17:00.942Z,9.67
2017-03-20T00:18:13.196Z,9.67
2017-03-20T00:19:25.450Z,9.73
2017-03-20T00:20:37.688Z,9.73
2017-03-20T00:21:49.915Z,9.73
2017-03-20T00:23:02.154Z,9.74
2017-03-20T00:24:14.709Z,9.72
2017-03-20T00:25:27.250Z,9.76
2017-03-20T00:26:39.782Z,9.74
2017-03-20T00:27:52.321Z,9.76
2017-03-20T00:29:04.570Z,9.67
2017-03-20T00:30:17.159Z,9.67
2017-03-20T00:31:29.684Z,9.72
2017-03-20T00:32:42.212Z,9.72
2017-03-20T00:33:54.456Z,9.73
2017-03-20T00:35:07.001Z,9.72
2017-03-20T00:36:19.535Z,9.69
2017-03-20T00:37:32.085Z,9.72
2017-03-20T00:38:44.041Z,9.72
2017-03-20T00:39:56.306Z,9.7
2017-03-20T00:41:08.527Z,9.76
2017-03-20T00:42:20.468Z,9.74
2017-03-20T00:43:33.014Z,9.69
2017-03-20T00:44:45.538Z,9.73
2017-03-20T00:45:57.439Z,9.67
2017-03-20T00:47:09.960Z,9.8
2017-03-20T00:48:22.203Z,9.7
2017-03-20T00:49:34.740Z,9.73
2017-03-20T00:50:47.247Z,9.74
2017-03-20T00:51:59.785Z,9.69
2017-03-20T00:53:11.989Z,9.73
2017-03-20T00:54:24.514Z,9.7
2017-03-20T00:55:37.047Z,9.72
2017-03-20T00:56:49.603Z,9.7
2017-03-20T00:58:01.548Z,9.73
2017-03-20T00:59:14.116Z,9.73
2017-03-20T01:00:26.065Z,9.72
2017-03-20T01:01:38.599Z,9.73
2017-03-20T01:02:51.128Z,9.72
2017-03-20T01:04:03.079Z,9.73
2017-03-20T01:05:15.019Z,9.7
2017-03-20T01:06:27.245Z,9.72
2017-03-20T01:07:39.504Z,9.72
2017-03-20T01:08:52.032Z,9.74
2017-03-20T01:10:04.278Z,9.72
2017-03-20T01:11:16.521Z,9.7
2017-03-20T01:12:28.750Z,9.73
2017-03-20T01:13:41.023Z,9.7
2017-03-20T01:14:53.540Z,9.73
2017-03-20T01:16:05.174Z,9.77
2017-03-20T01:17:17.100Z,9.7
2017-03-20T01:18:29.674Z,9.72
2017-03-20T01:19:41.892Z,9.73
2017-03-20T01:20:54.471Z,9.7
2017-03-20T01:22:06.712Z,9.73
2017-03-20T01:23:18.917Z,9.59
2017-03-20T01:24:31.499Z,9.69
2017-03-20T01:25:43.756Z,9.67
2017-03-20T01:26:56.296Z,9.7
2017-03-20T01:28:08.519Z,9.76
2017-03-20T01:29:20.738Z,9.62
2017-03-20T01:30:33.511Z,9.77
2017-03-20T01:31:45.499Z,9.66
2017-03-20T01:32:57.428Z,9.73
2017-03-20T01:34:09.697Z,9.62
2017-03-20T01:35:22.239Z,9.69
2017-03-20T01:36:34.769Z,9.63
2017-03-20T01:37:47.284Z,9.66
2017-03-20T01:38:59.810Z,9.59
2017-03-20T01:40:12.079Z,9.63
2017-03-20T01:41:24.024Z,9.66
2017-03-20T01:42:36.237Z,9.69
2017-03-20T01:43:47.860Z,9.63
2017-03-20T01:45:00.387Z,9.59
2017-03-20T01:46:12.634Z,9.59
2017-03-20T01:47:24.868Z,9.66
2017-03-20T01:48:37.400Z,9.59
2017-03-20T01:49:49.336Z,9.62
2017-03-20T01:51:01.582Z,9.63
2017-03-20T01:52:14.105Z,9.64
2017-03-20T01:53:26.052Z,9.58
2017-03-20T01:54:38.568Z,9.62
2017-03-20T01:55:50.501Z,9.66
2017-03-20T01:57:03.038Z,9.62
2017-03-20T01:58:15.282Z,9.63
2017-03-20T01:59:27.832Z,9.56
2017-03-20T02:00:40.382Z,9.59
2017-03-20T02:01:52.602Z,9.66
2017-03-20T02:03:05.121Z,9.62
2017-03-20T02:04:17.349Z,9.56
2017-03-20T02:05:29.590Z,9.64
2017-03-20T02:06:41.505Z,9.58
2017-03-20T02:07:53.449Z,9.63
2017-03-20T02:09:05.674Z,9.55
2017-03-20T02:10:18.221Z,9.62
2017-03-20T02:11:30.746Z,9.62
2017-03-20T02:12:42.959Z,9.59
2017-03-20T02:13:55.504Z,9.56
2017-03-20T02:15:08.057Z,9.58
2017-03-20T02:16:20.582Z,9.58
2017-03-20T02:17:33.130Z,9.63
2017-03-20T02:18:45.670Z,9.56
2017-03-20T02:19:58.216Z,9.58
2017-03-20T02:21:10.455Z,9.49
2017-03-20T02:22:22.976Z,9.58
2017-03-20T02:23:35.525Z,9.54
2017-03-20T02:24:47.474Z,9.52
2017-03-20T02:26:00.000Z,9.54
2017-03-20T02:27:12.245Z,9.55
2017-03-20T02:28:23.866Z,9.51
2017-03-20T02:29:36.105Z,9.48
2017-03-20T02:30:48.032Z,9.49
2017-03-20T02:31:59.674Z,9.54
2017-03-20T02:33:11.300Z,9.49
2017-03-20T02:34:23.564Z,9.54
2017-03-20T02:35:36.121Z,9.54
2017-03-20T02:36:48.031Z,9.47
2017-03-20T02:38:00.548Z,9.51
2017-03-20T02:39:12.476Z,9.56
2017-03-20T02:40:25.039Z,9.49
2017-03-20T02:41:37.340Z,9.45
2017-03-20T02:42:49.884Z,9.51
2017-03-20T02:44:02.410Z,9.47
2017-03-20T02:45:14.056Z,9.48
2017-03-20T02:46:26.526Z,9.47
2017-03-20T02:47:38.769Z,9.52
2017-03-20T02:48:51.000Z,9.47
2017-03-20T02:50:03.219Z,9.47
2017-03-20T02:51:15.482Z,9.54
2017-03-20T02:52:28.023Z,9.54
2017-03-20T02:53:40.576Z,9.45
2017-03-20T02:54:52.816Z,9.49
2017-03-20T02:56:05.361Z,9.48
2017-03-20T02:57:17.290Z,9.49
2017-03-20T02:58:29.531Z,9.52
2017-03-20T02:59:42.100Z,9.48
2017-03-20T03:00:54.032Z,9.51
2017-03-20T03:02:06.577Z,9.47
2017-03-20T03:03:19.121Z,9.51
2017-03-20T03:04:31.686Z,9.51
2017-03-20T03:05:43.939Z,9.52
2017-03-20T03:06:56.489Z,9.44
2017-03-20T03:08:08.733Z,9.44
2017-03-20T03:09:20.701Z,9.47
2017-03-20T03:10:33.225Z,9.52
2017-03-20T03:11:45.446Z,9.47
2017-03-20T03:12:57.989Z,9.51
2017-03-20T03:14:10.525Z,9.49
2017-03-20T03:15:22.761Z,9.48
2017-03-20T03:16:35.325Z,9.51
2017-03-20T03:17:47.866Z,9.51
2017-03-20T03:19:00.421Z,9.45
2017-03-20T03:20:12.654Z,9.45
2017-03-20T03:21:24.904Z,9.52
2017-03-20T03:22:37.157Z,9.48
2017-03-20T03:23:49.378Z,9.47
2017-03-20T03:25:01.937Z,9.52
2017-03-20T03:26:14.468Z,9.49
2017-03-20T03:27:26.708Z,9.47
2017-03-20T03:28:39.034Z,9.51
2017-03-20T03:29:51.505Z,9.48
2017-03-20T03:31:03.754Z,9.55
2017-03-20T03:32:15.992Z,9.48
2017-03-20T03:33:28.543Z,9.47
2017-03-20T03:34:41.062Z,9.47
2017-03-20T03:35:52.987Z,9.48
2017-03-20T03:37:05.257Z,9.48
2017-03-20T03:38:17.504Z,9.47
2017-03-20T03:39:30.038Z,9.49
2017-03-20T03:40:41.963Z,9.45
2017-03-20T03:41:53.881Z,9.48
2017-03-20T03:43:05.860Z,9.48
2017-03-20T03:44:18.427Z,9.51
2017-03-20T03:45:30.643Z,9.45
2017-03-20T03:46:42.867Z,9.58
2017-03-20T03:47:55.411Z,9.56
2017-03-20T03:49:07.330Z,9.51
2017-03-20T03:50:19.852Z,9.56
2017-03-20T03:51:32.082Z,9.48
2017-03-20T03:52:44.308Z,9.48
2017-03-20T03:53:56.843Z,9.51
2017-03-20T03:55:09.370Z,9.51
2017-03-20T03:56:21.591Z,9.54
2017-03-20T03:57:34.142Z,9.49
2017-03-20T03:58:46.402Z,9.52
2017-03-20T03:59:58.655Z,9.48
2017-03-20T04:01:11.193Z,9.48
2017-03-20T04:02:23.974Z,9.47
2017-03-20T04:03:36.522Z,9.48
2017-03-20T04:04:48.159Z,9.49
2017-03-20T04:06:00.099Z,9.54
2017-03-20T04:07:12.644Z,9.48
2017-03-20T04:08:24.870Z,9.49
2017-03-20T04:09:37.386Z,9.45
2017-03-20T04:10:49.619Z,9.51
2017-03-20T04:12:01.864Z,9.47
2017-03-20T04:13:14.386Z,9.48
2017-03-20T04:14:26.636Z,9.51
2017-03-20T04:15:39.169Z,9.47
2017-03-20T04:16:51.690Z,9.49
2017-03-20T04:18:03.933Z,9.52
2017-03-20T04:19:15.882Z,9.51
2017-03-20T04:20:28.114Z,9.47
2017-03-20T04:21:40.659Z,9.51
2017-03-20T04:22:53.171Z,9.48
2017-03-20T04:24:05.711Z,9.49
2017-03-20T04:25:18.291Z,9.54
2017-03-20T04:26:30.804Z,9.52
2017-03-20T04:27:43.056Z,9.52
2017-03-20T04:28:55.306Z,9.47
2017-03-20T04:30:07.873Z,9.51
2017-03-20T04:31:20.093Z,9.47
2017-03-20T04:32:32.034Z,9.52
2017-03-20T04:33:44.581Z,9.45
2017-03-20T04:34:56.481Z,9.49
2017-03-20T04:36:09.021Z,9.47
2017-03-20T04:37:21.266Z,9.48
2017-03-20T04:38:33.793Z,9.45
2017-03-20T04:39:46.047Z,9.47
2017-03-20T04:40:58.272Z,9.52
2017-03-20T04:42:10.808Z,9.47
2017-03-20T04:43:23.048Z,9.51
2017-03-20T04:44:35.305Z,9.47
2017-03-20T04:45:47.590Z,9.45
2017-03-20T04:46:59.842Z,9.51
2017-03-20T04:48:11.759Z,9.49
2017-03-20T04:49:23.980Z,9.51
2017-03-20T04:50:36.535Z,9.47
2017-03-20T04:51:48.776Z,9.51
2017-03-20T04:53:01.277Z,9.52
2017-03-20T04:54:13.822Z,9.47
2017-03-20T04:55:25.761Z,9.52
2017-03-20T04:56:38.310Z,9.51
2017-03-20T04:57:50.226Z,9.52
2017-03-20T04:59:02.168Z,9.48
2017-03-20T05:00:14.120Z,9.49
2017-03-20T05:01:26.397Z,9.51
2017-03-20T05:02:38.943Z,9.48
2017-03-20T05:03:50.894Z,9.49
2017-03-20T05:05:03.425Z,9.42
2017-03-20T05:06:15.978Z,9.52
2017-03-20T05:07:28.547Z,9.47
2017-03-20T05:08:40.186Z,9.47
2017-03-20T05:09:52.718Z,9.52
2017-03-20T05:11:04.958Z,9.47
2017-03-20T05:12:17.474Z,9.56
2017-03-20T05:13:29.699Z,9.49
2017-03-20T05:14:41.930Z,9.49
2017-03-20T05:15:54.487Z,9.56
2017-03-20T05:17:06.716Z,9.45
2017-03-20T05:18:18.940Z,9.52
2017-03-20T05:19:31.182Z,9.58
2017-03-20T05:20:43.727Z,9.54
2017-03-20T05:21:55.669Z,9.51
2017-03-20T05:23:07.637Z,9.47
2017-03-20T05:24:19.863Z,9.52
2017-03-20T05:25:31.836Z,9.59
2017-03-20T05:26:44.363Z,9.55
2017-03-20T05:27:56.896Z,9.58
2017-03-20T05:29:09.172Z,9.62
2017-03-20T05:30:21.442Z,9.56
2017-03-20T05:31:33.969Z,9.59
2017-03-20T05:32:46.515Z,9.62
2017-03-20T05:33:58.730Z,9.56
2017-03-20T05:35:11.287Z,9.58
2017-03-20T05:36:23.822Z,9.59
2017-03-20T05:37:36.343Z,9.66
2017-03-20T05:38:48.872Z,9.67
2017-03-20T05:40:01.436Z,9.59
2017-03-20T05:41:13.376Z,9.62
2017-03-20T05:42:25.297Z,9.69
2017-03-20T05:43:37.853Z,9.67
2017-03-20T05:44:50.079Z,9.67
2017-03-20T05:46:02.617Z,9.64
2017-03-20T05:47:14.882Z,9.67
2017-03-20T05:48:27.391Z,9.7
2017-03-20T05:49:39.935Z,9.72
2017-03-20T05:50:52.172Z,9.73
2017-03-20T05:52:04.172Z,9.73
2017-03-20T05:53:16.391Z,9.73
2017-03-20T05:54:28.989Z,9.7
2017-03-20T05:55:41.530Z,9.72
2017-03-20T05:56:53.777Z,9.76
2017-03-20T05:58:06.319Z,9.76
2017-03-20T05:59:18.548Z,9.74
2017-03-20T06:00:30.772Z,9.74
2017-03-20T06:01:43.010Z,9.74
2017-03-20T06:02:55.256Z,9.76
2017-03-20T06:04:07.206Z,9.77
2017-03-20T06:05:19.743Z,9.76
2017-03-20T06:06:31.978Z,9.82
2017-03-20T06:07:44.222Z,9.82
2017-03-20T06:08:56.123Z,9.81
2017-03-20T06:10:07.756Z,9.8
2017-03-20T06:11:20.303Z,9.81
2017-03-20T06:12:32.827Z,9.88
2017-03-20T06:13:45.414Z,9.82
2017-03-20T06:14:57.045Z,9.87
2017-03-20T06:16:09.540Z,9.88
2017-03-20T06:17:21.479Z,9.87
2017-03-20T06:18:34.053Z,9.91
2017-03-20T06:19:46.271Z,9.92
2017-03-20T06:20:58.852Z,9.92
2017-03-20T06:22:10.501Z,9.95
2017-03-20T06:23:22.984Z,9.91
2017-03-20T06:24:35.540Z,9.92
2017-03-20T06:25:47.232Z,9.97
2017-03-20T06:26:59.759Z,9.95
2017-03-20T06:28:12.293Z,9.97
2017-03-20T06:29:23.921Z,10.02
2017-03-20T06:30:36.446Z,10.03
2017-03-20T06:31:48.992Z,9.99
2017-03-20T06:33:01.511Z,10
2017-03-20T06:34:14.034Z,10.02
2017-03-20T06:35:26.575Z,9.97
2017-03-20T06:36:38.813Z,9.95
2017-03-20T06:37:51.060Z,10.09
2017-03-20T06:39:03.288Z,10.07
2017-03-20T06:40:15.826Z,10.09
2017-03-20T06:41:28.058Z,10.1
2017-03-20T06:42:40.322Z,10.12
2017-03-20T06:43:52.839Z,10.06
2017-03-20T06:45:05.339Z,10.15
2017-03-20T06:46:17.584Z,10.09
2017-03-20T06:47:30.185Z,10.15
2017-03-20T06:48:42.126Z,10.15
2017-03-20T06:49:54.655Z,10.15
2017-03-20T06:51:06.602Z,10.12
2017-03-20T06:52:19.128Z,10.12
2017-03-20T06:53:31.685Z,10.17
2017-03-20T06:54:43.927Z,10.13
2017-03-20T06:55:56.452Z,10.1
2017-03-20T06:57:08.069Z,10.12
2017-03-20T06:58:20.624Z,10.15
2017-03-20T06:59:32.847Z,10.13
2017-03-20T07:00:45.407Z,10.18
2017-03-20T07:01:57.953Z,10.15
2017-03-20T07:03:10.190Z,10.17
2017-03-20T07:04:22.752Z,10.13
2017-03-20T07:05:35.280Z,10.17
2017-03-20T07:06:47.803Z,10.17
2017-03-20T07:08:00.017Z,10.21
2017-03-20T07:09:12.582Z,10.12
2017-03-20T07:10:24.534Z,10.12
2017-03-20T07:11:37.069Z,10.2
2017-03-20T07:12:49.603Z,10.15
2017-03-20T07:14:01.573Z,10.17
2017-03-20T07:15:14.143Z,10.27
2017-03-20T07:16:26.679Z,10.17
2017-03-20T07:17:38.937Z,10.18
2017-03-20T07:18:50.570Z,10.15
2017-03-20T07:20:03.123Z,10.15
2017-03-20T07:21:15.350Z,10.2
2017-03-20T07:22:27.919Z,10.28
2017-03-20T07:23:40.484Z,10.28
2017-03-20T07:24:52.129Z,10.24
2017-03-20T07:26:03.471Z,10.3
2017-03-20T07:27:15.704Z,10.28
2017-03-20T07:28:28.246Z,10.25
2017-03-20T07:29:40.463Z,10.21
2017-03-20T07:30:52.704Z,10.33
2017-03-20T07:32:04.930Z,10.27
2017-03-20T07:33:17.463Z,10.28
2017-03-20T07:34:29.403Z,10.3
2017-03-20T07:35:41.943Z,10.33
2017-03-20T07:36:54.538Z,10.28
2017-03-20T07:38:07.056Z,10.34
2017-03-20T07:39:19.555Z,10.34
2017-03-20T07:40:31.804Z,10.38
2017-03-20T07:41:44.031Z,10.41
2017-03-20T07:42:56.597Z,10.31
2017-03-20T07:44:08.835Z,10.41
2017-03-20T07:45:21.413Z,10.48
2017-03-20T07:46:33.652Z,10.46
2017-03-20T07:47:45.909Z,10.36
2017-03-20T07:48:58.454Z,10.38
2017-03-20T07:50:10.390Z,10.48
2017-03-20T07:51:22.940Z,10.48
2017-03-20T07:52:35.182Z,10.49
2017-03-20T07:53:47.728Z,10.48
2017-03-20T07:54:59.981Z,10.42
2017-03-20T07:56:12.519Z,10.43
2017-03-20T07:57:25.065Z,10.45
2017-03-20T07:58:37.313Z,10.41
2017-03-20T07:59:49.264Z,10.43
2017-03-20T08:01:02.056Z,10.42
2017-03-20T08:02:14.599Z,10.49
2017-03-20T08:03:26.828Z,10.57
2017-03-20T08:04:39.045Z,10.45
2017-03-20T08:05:51.621Z,10.51
2017-03-20T08:07:03.820Z,10.51
2017-03-20T08:08:15.754Z,10.53
2017-03-20T08:09:27.704Z,10.53
2017-03-20T08:10:40.231Z,10.49
2017-03-20T08:11:52.777Z,10.59
2017-03-20T08:13:04.737Z,10.48
2017-03-20T08:14:16.764Z,10.59
2017-03-20T08:15:28.966Z,10.59
2017-03-20T08:16:41.207Z,10.51
2017-03-20T08:17:53.447Z,10.57
2017-03-20T08:19:05.979Z,10.55
2017-03-20T08:20:18.237Z,10.58
2017-03-20T08:21:30.798Z,10.71
2017-03-20T08:22:43.365Z,10.68
2017-03-20T08:23:55.929Z,10.65
2017-03-20T08:25:08.158Z,10.67
2017-03-20T08:26:20.674Z,10.69
2017-03-20T08:27:33.195Z,10.82
2017-03-20T08:28:45.762Z,10.79
2017-03-20T08:29:58.010Z,10.79
2017-03-20T08:31:10.286Z,10.79
2017-03-20T08:32:22.804Z,10.83
2017-03-20T08:33:35.318Z,10.79
2017-03-20T08:34:47.849Z,10.95
2017-03-20T08:36:00.092Z,10.86
2017-03-20T08:37:12.033Z,10.87
2017-03-20T08:38:24.580Z,11.01
2017-03-20T08:39:37.105Z,10.97
2017-03-20T08:40:49.647Z,11.01
2017-03-20T08:42:01.893Z,10.94
2017-03-20T08:43:14.135Z,10.97
2017-03-20T08:44:26.685Z,10.97
2017-03-20T08:45:39.229Z,10.97
2017-03-20T08:46:51.479Z,11
2017-03-20T08:48:03.701Z,11.05
2017-03-20T08:49:16.239Z,11.04
2017-03-20T08:50:28.773Z,11.05
2017-03-20T08:51:41.314Z,11.08
2017-03-20T08:52:53.814Z,11.15
2017-03-20T08:54:06.375Z,11.1
2017-03-20T08:55:18.626Z,11.07
2017-03-20T08:56:31.143Z,11.16
2017-03-20T08:57:43.689Z,11.23
2017-03-20T08:58:56.233Z,11.2
2017-03-20T09:00:08.789Z,11.34
2017-03-20T09:01:20.730Z,11.3
2017-03-20T09:02:32.982Z,11.35
2017-03-20T09:03:45.517Z,11.38
2017-03-20T09:04:57.751Z,11.48
2017-03-20T09:06:09.692Z,11.52
2017-03-20T09:07:22.234Z,11.51
2017-03-20T09:08:34.525Z,11.59
2017-03-20T09:09:47.081Z,11.77
2017-03-20T09:10:59.603Z,11.65
2017-03-20T09:12:12.161Z,11.78
2017-03-20T09:13:24.693Z,11.83
2017-03-20T09:14:36.937Z,11.91
2017-03-20T09:15:49.176Z,11.88
2017-03-20T09:17:01.720Z,11.89
2017-03-20T09:18:13.971Z,12
2017-03-20T09:19:26.224Z,12.12
2017-03-20T09:20:38.758Z,12.08
2017-03-20T09:21:51.312Z,11.99
2017-03-20T09:23:04.103Z,12
2017-03-20T09:24:16.657Z,12.03
2017-03-20T09:25:29.229Z,12
2017-03-20T09:26:41.796Z,12.02
2017-03-20T09:27:54.311Z,11.99
2017-03-20T09:29:06.856Z,11.97
2017-03-20T09:30:19.101Z,11.95
2017-03-20T09:31:31.357Z,12.02
2017-03-20T09:32:43.596Z,11.97
2017-03-20T09:33:56.146Z,11.97
2017-03-20T09:35:07.784Z,12
2017-03-20T09:36:19.732Z,11.97
2017-03-20T09:37:31.962Z,11.95
2017-03-20T09:38:44.510Z,11.88
2017-03-20T09:39:56.754Z,11.91
2017-03-20T09:41:08.691Z,11.81
2017-03-20T09:42:20.920Z,11.88
2017-03-20T09:43:32.881Z,11.93
2017-03-20T09:44:44.812Z,11.95
2017-03-20T09:45:57.047Z,11.97
2017-03-20T09:47:09.584Z,11.91
2017-03-20T09:48:22.118Z,11.78
2017-03-20T09:49:34.388Z,11.91
2017-03-20T09:50:46.634Z,11.89
2017-03-20T09:51:59.176Z,11.85
2017-03-20T09:53:11.748Z,11.86
2017-03-20T09:54:24.272Z,11.86
2017-03-20T09:55:36.515Z,11.86
2017-03-20T09:56:49.043Z,11.86
2017-03-20T09:58:01.556Z,11.86
2017-03-20T09:59:13.481Z,11.88
2017-03-20T10:00:25.661Z,11.86
2017-03-20T10:01:37.919Z,11.81
2017-03-20T10:02:49.853Z,11.88
2017-03-20T10:04:02.414Z,11.76
2017-03-20T10:05:14.668Z,11.86
2017-03-20T10:06:26.939Z,11.85
2017-03-20T10:07:39.199Z,11.83
2017-03-20T10:08:51.746Z,11.78
2017-03-20T10:10:03.967Z,11.86
2017-03-20T10:11:15.872Z,11.83
2017-03-20T10:12:27.807Z,11.83
2017-03-20T10:13:40.040Z,11.83
2017-03-20T10:14:52.599Z,11.89
2017-03-20T10:16:05.145Z,11.8
2017-03-20T10:17:17.074Z,11.86
2017-03-20T10:18:29.311Z,11.86
2017-03-20T10:19:40.959Z,11.81
2017-03-20T10:20:53.177Z,11.83
2017-03-20T10:22:05.106Z,11.83
2017-03-20T10:23:17.354Z,11.83
2017-03-20T10:24:29.628Z,11.83
2017-03-20T10:25:41.866Z,11.83
2017-03-20T10:26:54.091Z,11.86
2017-03-20T10:28:06.682Z,11.77
2017-03-20T10:29:18.604Z,11.88
2017-03-20T10:30:30.829Z,11.83
2017-03-20T10:31:43.067Z,11.89
2017-03-20T10:32:55.579Z,11.88
2017-03-20T10:34:07.509Z,11.93
2017-03-20T10:35:19.738Z,11.95
2017-03-20T10:36:31.662Z,11.96
2017-03-20T10:37:43.597Z,11.93
2017-03-20T10:38:55.830Z,11.86
2017-03-20T10:40:07.775Z,11.89
2017-03-20T10:41:20.016Z,11.85
2017-03-20T10:42:32.262Z,11.97
2017-03-20T10:43:44.805Z,11.96
2017-03-20T10:44:57.358Z,11.95
2017-03-20T10:46:09.929Z,11.97
2017-03-20T10:47:21.864Z,12.03
2017-03-20T10:48:34.092Z,12.11
2017-03-20T10:49:46.606Z,12.11
2017-03-20T10:50:59.130Z,12.11
2017-03-20T10:52:11.676Z,12.23
2017-03-20T10:53:23.604Z,12.21
2017-03-20T10:54:35.517Z,12.33
2017-03-20T10:55:47.742Z,12.4
2017-03-20T10:56:59.689Z,12.43
2017-03-20T10:58:11.303Z,12.43
2017-03-20T10:59:23.256Z,12.58
2017-03-20T11:00:35.806Z,12.66
2017-03-20T11:01:48.373Z,12.69
2017-03-20T11:03:00.885Z,12.83
2017-03-20T11:04:13.134Z,12.81
2017-03-20T11:05:25.378Z,12.86
2017-03-20T11:06:37.624Z,12.86
2017-03-20T11:07:49.873Z,12.95
2017-03-20T11:09:02.123Z,12.94
2017-03-20T11:10:14.672Z,12.95
2017-03-20T11:11:26.910Z,13.01
2017-03-20T11:12:39.465Z,13.01
2017-03-20T11:13:52.009Z,13.06
2017-03-20T11:15:04.549Z,13.03
2017-03-20T11:16:17.095Z,13.02
2017-03-20T11:17:29.038Z,13.03
2017-03-20T11:18:41.595Z,13.02
2017-03-20T11:19:54.165Z,13.06
2017-03-20T11:21:06.708Z,13.02
2017-03-20T11:22:18.635Z,13.13
2017-03-20T11:23:31.171Z,13.13
2017-03-20T11:24:43.412Z,13.19
2017-03-20T11:25:55.920Z,13.09
2017-03-20T11:27:08.185Z,13.28
2017-03-20T11:28:19.240Z,13.3
2017-03-20T11:29:30.896Z,13.31
2017-03-20T11:30:43.149Z,13.3
2017-03-20T11:31:55.363Z,13.43
2017-03-20T11:33:07.589Z,13.49
2017-03-20T11:34:20.192Z,13.45
2017-03-20T11:35:32.461Z,13.46
2017-03-20T11:36:44.671Z,13.5
2017-03-20T11:37:56.842Z,13.5
2017-03-20T11:39:09.092Z,13.54
2017-03-20T11:40:21.310Z,13.68
2017-03-20T11:41:33.831Z,13.67
2017-03-20T11:42:46.077Z,13.64
2017-03-20T11:43:58.610Z,13.68
2017-03-20T11:45:10.832Z,13.65
2017-03-20T11:46:23.050Z,13.7
2017-03-20T11:47:34.995Z,13.7
2017-03-20T11:48:47.235Z,13.78
2017-03-20T11:49:59.184Z,13.79
2017-03-20T11:51:11.110Z,13.8
2017-03-20T11:52:23.676Z,13.89
2017-03-20T11:53:35.918Z,13.95
2017-03-20T11:54:47.864Z,13.87
2017-03-20T11:56:00.395Z,13.94
2017-03-20T11:57:12.987Z,13.85
2017-03-20T11:58:24.646Z,13.87
2017-03-20T11:59:37.203Z,13.8
2017-03-20T12:00:49.427Z,13.93
2017-03-20T12:02:01.987Z,13.89
2017-03-20T12:03:14.542Z,13.85
2017-03-20T12:04:26.805Z,13.8
2017-03-20T12:05:39.052Z,13.87
2017-03-20T12:06:51.603Z,13.94
2017-03-20T12:08:03.831Z,13.82
2017-03-20T12:09:16.637Z,13.83
2017-03-20T12:10:28.908Z,13.95
2017-03-20T12:11:41.161Z,13.82
2017-03-20T12:12:53.082Z,13.82
2017-03-20T12:14:05.280Z,13.8
2017-03-20T12:15:17.528Z,13.76
2017-03-20T12:16:29.471Z,13.82
2017-03-20T12:17:41.713Z,13.8
2017-03-20T12:18:53.970Z,13.87
2017-03-20T12:20:05.928Z,13.87
2017-03-20T12:21:18.153Z,13.83
2017-03-20T12:22:30.393Z,13.93
2017-03-20T12:23:42.613Z,13.91
2017-03-20T12:24:54.592Z,13.94
2017-03-20T12:26:07.115Z,13.91
2017-03-20T12:27:19.653Z,13.98
2017-03-20T12:28:31.933Z,14.01
2017-03-20T12:29:43.877Z,14.04
2017-03-20T12:30:55.819Z,14.04
2017-03-20T12:32:08.341Z,14.07
2017-03-20T12:33:20.582Z,14.04
2017-03-20T12:34:33.154Z,14.12
2017-03-20T12:35:45.101Z,14.11
2017-03-20T12:36:57.645Z,14.11
2017-03-20T12:38:09.919Z,13.98
2017-03-20T12:39:22.160Z,14.05
2017-03-20T12:40:34.717Z,14
2017-03-20T12:41:47.284Z,14.01
2017-03-20T12:42:59.197Z,13.97
2017-03-20T12:44:11.418Z,13.97
2017-03-20T12:45:23.692Z,13.87
2017-03-20T12:46:35.672Z,13.86
2017-03-20T12:47:47.909Z,13.83
2017-03-20T12:49:00.163Z,13.94
2017-03-20T12:50:12.433Z,13.89
2017-03-20T12:51:24.356Z,13.87
2017-03-20T12:52:36.614Z,13.85
2017-03-20T12:53:48.863Z,13.8
2017-03-20T12:55:01.110Z,13.75
2017-03-20T12:56:13.666Z,13.65
2017-03-20T12:57:26.209Z,13.67
2017-03-20T12:58:38.452Z,13.64
2017-03-20T12:59:50.398Z,13.7
2017-03-20T13:01:02.961Z,13.58
2017-03-20T13:02:14.880Z,13.71
2017-03-20T13:03:27.117Z,13.71
2017-03-20T13:04:39.378Z,13.64
2017-03-20T13:05:51.894Z,13.68
2017-03-20T13:07:04.419Z,13.65
2017-03-20T13:08:16.372Z,13.85
2017-03-20T13:09:28.636Z,13.76
2017-03-20T13:10:41.207Z,13.79
2017-03-20T13:11:53.128Z,13.91
2017-03-20T13:13:05.674Z,13.94
2017-03-20T13:14:18.223Z,13.98
2017-03-20T13:15:29.873Z,14.01
2017-03-20T13:16:42.391Z,14.07
2017-03-20T13:17:54.936Z,14.07
2017-03-20T13:19:07.505Z,14.04
2017-03-20T13:20:19.746Z,14.08
2017-03-20T13:21:31.703Z,14.12
2017-03-20T13:22:43.949Z,14.18
2017-03-20T13:23:56.458Z,14.16
2017-03-20T13:25:08.690Z,14.08
2017-03-20T13:26:20.908Z,14.05
2017-03-20T13:27:33.124Z,13.98
2017-03-20T13:28:45.368Z,14.04
2017-03-20T13:29:57.914Z,14
2017-03-20T13:31:10.416Z,14.04
2017-03-20T13:32:22.931Z,14.07
2017-03-20T13:33:34.888Z,14.16
2017-03-20T13:34:47.426Z,14.3
2017-03-20T13:35:59.679Z,14.33
2017-03-20T13:37:11.947Z,14.53
2017-03-20T13:38:24.235Z,14.58
2017-03-20T13:39:36.512Z,14.7
2017-03-20T13:40:48.784Z,14.78
2017-03-20T13:42:01.322Z,14.93
2017-03-20T13:43:13.581Z,14.96
2017-03-20T13:44:26.138Z,15
2017-03-20T13:45:38.062Z,15.08
2017-03-20T13:46:50.298Z,15.05
2017-03-20T13:48:02.527Z,15.05
2017-03-20T13:49:15.076Z,15.05
2017-03-20T13:50:27.030Z,15.05
2017-03-20T13:51:39.564Z,15.05
2017-03-20T13:52:52.118Z,15.11
2017-03-20T13:54:04.691Z,15.05
2017-03-20T13:55:16.638Z,15.02
2017-03-20T13:56:28.819Z,14.99
2017-03-20T13:57:40.629Z,14.89
2017-03-20T13:58:52.893Z,14.93
2017-03-20T14:00:04.846Z,14.92
2017-03-20T14:01:16.769Z,14.82
2017-03-20T14:02:29.029Z,14.89
2017-03-20T14:03:40.978Z,14.86
2017-03-20T14:04:53.580Z,14.86
2017-03-20T14:06:06.126Z,14.9
2017-03-20T14:07:18.090Z,14.9
2017-03-20T14:08:30.337Z,14.9
2017-03-20T14:09:42.889Z,14.85
2017-03-20T14:10:55.407Z,14.96
2017-03-20T14:12:07.958Z,14.92
2017-03-20T14:13:20.239Z,14.97
2017-03-20T14:14:32.798Z,14.99
2017-03-20T14:15:45.337Z,14.92
2017-03-20T14:16:57.889Z,14.9
2017-03-20T14:18:10.437Z,14.89
2017-03-20T14:19:22.955Z,14.87
2017-03-20T14:20:35.519Z,14.93
2017-03-20T14:21:48.047Z,14.87
2017-03-20T14:23:00.286Z,14.9
2017-03-20T14:24:12.532Z,14.89
2017-03-20T14:25:24.787Z,14.92
2017-03-20T14:26:37.321Z,14.9
2017-03-20T14:27:49.867Z,14.94
2017-03-20T14:29:02.100Z,14.99
2017-03-20T14:30:14.338Z,14.85
2017-03-20T14:31:26.316Z,14.85
2017-03-20T14:32:38.583Z,14.94
2017-03-20T14:33:50.828Z,14.94
2017-03-20T14:35:02.467Z,14.99
2017-03-20T14:36:15.024Z,14.96
2017-03-20T14:37:27.588Z,14.93
2017-03-20T14:38:40.135Z,14.7
2017-03-20T14:39:52.352Z,14.71
2017-03-20T14:41:04.873Z,14.77
2017-03-20T14:42:17.120Z,14.68
2017-03-20T14:43:29.667Z,14.61
2017-03-20T14:44:42.213Z,14.51
2017-03-20T14:45:54.781Z,14.48
2017-03-20T14:47:07.030Z,14.58
2017-03-20T14:48:19.276Z,14.41
2017-03-20T14:49:31.505Z,14.49
2017-03-20T14:50:44.028Z,14.45
2017-03-20T14:51:56.543Z,14.38
2017-03-20T14:53:08.192Z,14.33
2017-03-20T14:54:20.730Z,14.31
2017-03-20T14:55:32.673Z,14.23
2017-03-20T14:56:45.226Z,14.2
2017-03-20T14:57:57.769Z,14.28
2017-03-20T14:59:10.018Z,14.2
2017-03-20T15:00:21.638Z,14.22
2017-03-20T15:01:33.860Z,14.19
2017-03-20T15:02:46.399Z,14.15
2017-03-20T15:03:58.608Z,14.2
2017-03-20T15:05:10.848Z,14.13
2017-03-20T15:06:23.090Z,14.15
2017-03-20T15:07:35.018Z,14.15
2017-03-20T15:08:47.256Z,14.07
2017-03-20T15:09:59.500Z,14.11
2017-03-20T15:11:12.024Z,14.11
2017-03-20T15:12:24.001Z,14.07
2017-03-20T15:13:36.570Z,14.08
2017-03-20T15:14:49.108Z,14.07
2017-03-20T15:16:01.645Z,14.03
2017-03-20T15:17:14.210Z,14.04
2017-03-20T15:18:26.750Z,14.16
2017-03-20T15:19:38.674Z,14.11
2017-03-20T15:20:51.216Z,14.12
2017-03-20T15:22:03.733Z,14.11
2017-03-20T15:23:16.286Z,14.19
2017-03-20T15:24:28.541Z,14.13
2017-03-20T15:25:40.495Z,14.15
2017-03-20T15:26:52.766Z,14.12
2017-03-20T15:28:05.287Z,14.19
2017-03-20T15:29:17.537Z,14.03
2017-03-20T15:30:29.457Z,14.12
2017-03-20T15:31:42.054Z,14.03
2017-03-20T15:32:54.301Z,13.94
2017-03-20T15:34:06.557Z,13.97
2017-03-20T15:35:19.142Z,13.83
2017-03-20T15:36:31.709Z,13.91
2017-03-20T15:37:43.967Z,13.79
2017-03-20T15:38:56.202Z,13.79
2017-03-20T15:40:08.447Z,13.76
2017-03-20T15:41:20.985Z,13.8
2017-03-20T15:42:33.524Z,13.7
2017-03-20T15:43:45.463Z,13.68
2017-03-20T15:44:57.671Z,13.7
2017-03-20T15:46:09.911Z,13.64